Accueil
METAR-TAF:

METAR-TAF

Aéroports :

Friedrichshafen, Allemagne

Aéroport de Friedrichshafen

latitude: 47-40N, longitude: 009-31E, altitude: 416 m

Observation

Le bulletin a été fait il y a 11 minutes, à 00:50 UTC
Vent 2 kt de est
Température 12°C
Humidité 100%
Pression 1020 hPa
Visibilité 10 km ou plus

METAR: EDNY 240050Z AUTO 10002KT 9999 // SCT036/// BKN067/// 12/12 Q1020

Heure: 03:01 (01:01 UTC)

Prévision

Le bulletin a été fait il y a 2 heures et 1 minutes, à 23:00 UTC
Prévision valable du 24 à 00 UTC au 24 à 24 UTC
Vent 2 kt de direction variable
Visibilité 10 km ou plus
Nuages fragmentés à une hauteur de 3000 ft
Evoluant progressivement
du 24 à 08 UTC au 24 à 10 UTC
Vent 5 kt de sud-ouest
Evoluant progressivement
du 24 à 17 UTC au 24 à 19 UTC
Vent 2 kt de direction variable

TAF: EDNY 232300Z 2400/2424 VRB02KT 9999 BKN030 BECMG 2408/2410 23005KT BECMG 2417/2419 VRB02KT

Observations et prévisions météorologiques de plus de 4000 aéroports (messages METAR et TAF).

Les stations disponibles sont représentées par des disques jaunes et rouges sur la carte.

Passer la souris dessus pour voir le nom de la station.

Cliquer dessus pour voir les observations et prévisions météorologiques.

Pour changer de carte: cliquez sur les boutons verts avec une croix noire pour zoomer, sur le bouton vert avec un tiret pour effectuer un zoom arrière, ou sur les flèches vertes pour les cartes adjacentes.


METAR-TAF: